Time;durP1;ratioP1;P1;durP2;ratioP2;P2;SDS_P1;SDS_P2;PMS_P1;PMS_P2;Temp;Humidity;BMP_temperature;BMP_pressure;BME280_temperature;BME280_humidity;BME280_pressure;Samples;Min_cycle;Max_cycle;Signal;HPM_P1;HPM_P2
2021/06/30 00:00:10;;;;;;;;;;;;;;;24.52;46.12;100641.31;5096908;28;983;-28
2021/06/30 00:02:35;;;;;;;;;;;;;;;24.96;43.81;100634.72;5096910;28;760;-29
2021/06/30 00:05:00;;;;;;;;;;;;;;;24.05;43.66;100633.69;5096720;28;807;-31
2021/06/30 00:07:26;;;;;;;;;;;;;;;23.93;44.07;100637.66;5096775;28;939;-27
2021/06/30 00:09:51;;;;;;;;;;;;;;;24.18;44.78;100627.00;5078638;28;1093;-27
2021/06/30 00:12:16;;;;;;;;;;;;;;;24.32;46.24;100620.13;5096610;28;771;-29
2021/06/30 00:14:42;;;;;;;;;;;;;;;24.92;43.74;100625.34;5096516;28;943;-28
2021/06/30 00:17:07;;;;;;;;;;;;;;;24.63;41.67;100630.22;5096360;28;1961;-28
2021/06/30 00:19:33;;;;;;;;;;;;;;;23.94;43.40;100639.38;5096456;28;819;-28
2021/06/30 00:21:58;;;;;;;;;;;;;;;24.25;44.52;100633.41;5078702;28;1127;-29
2021/06/30 00:24:24;;;;;;;;;;;;;;;24.58;45.56;100633.41;5096920;28;775;-30
2021/06/30 00:26:49;;;;;;;;;;;;;;;24.91;43.59;100637.94;5096471;28;787;-29
2021/06/30 00:29:14;;;;;;;;;;;;;;;24.54;41.94;100640.13;5096213;28;967;-29
2021/06/30 00:31:39;;;;;;;;;;;;;;;23.93;43.89;100634.97;5096803;28;827;-28
2021/06/30 00:34:05;;;;;;;;;;;;;;;24.14;45.31;100634.50;5078192;28;1293;-27
2021/06/30 00:36:31;;;;;;;;;;;;;;;24.55;45.70;100638.28;5096904;28;748;-30
2021/06/30 00:38:56;;;;;;;;;;;;;;;24.85;44.23;100641.28;5096590;28;1918;-28
2021/06/30 00:41:21;;;;;;;;;;;;;;;24.88;45.39;100642.78;5096446;28;751;-29
2021/06/30 00:43:47;;;;;;;;;;;;;;;23.84;44.39;100639.47;5096312;28;998;-28
2021/06/30 00:46:12;;;;;;;;;;;;;;;24.06;45.87;100637.19;5096612;28;767;-29
2021/06/30 00:48:39;;;;;;;;;;;;;;;24.59;45.10;100636.91;5096069;28;823;-29
2021/06/30 00:51:05;;;;;;;;;;;;;;;24.04;44.39;100649.97;5096512;28;783;-29
2021/06/30 00:53:30;;;;;;;;;;;;;;;23.81;47.59;100646.03;5096491;28;862;-42
2021/06/30 00:55:55;;;;;;;;;;;;;;;24.43;44.40;100651.22;5096129;28;783;-28
2021/06/30 00:58:21;;;;;;;;;;;;;;;24.64;45.67;100636.44;5096490;28;1910;-42
2021/06/30 01:00:47;;;;;;;;;;;;;;;25.00;44.18;100632.53;5077875;28;995;-28
2021/06/30 01:03:13;;;;;;;;;;;;;;;24.14;44.47;100642.56;5096033;28;854;-28
2021/06/30 01:05:38;;;;;;;;;;;;;;;23.87;46.86;100639.19;5099621;28;799;-30
2021/06/30 01:08:04;;;;;;;;;;;;;;;24.31;44.88;100634.56;5100160;28;890;-27
2021/06/30 01:10:29;;;;;;;;;;;;;;;24.52;46.40;100630.56;5099704;28;795;-29
2021/06/30 01:12:54;;;;;;;;;;;;;;;23.71;44.64;100627.38;5099825;28;500;-28
2021/06/30 01:15:20;;;;;;;;;;;;;;;24.08;45.57;100627.97;5099612;28;947;-28
2021/06/30 01:17:47;;;;;;;;;;;;;;;24.55;45.69;100620.31;5099293;28;1906;-29
2021/06/30 01:20:12;;;;;;;;;;;;;;;24.06;44.24;100613.84;5081498;28;1710;-29
2021/06/30 01:22:42;;;;;;;;;;;;;;;23.85;46.82;100606.25;5099542;28;1228;-27
2021/06/30 01:25:07;;;;;;;;;;;;;;;24.42;44.46;100603.84;5099246;28;807;-30
2021/06/30 01:27:32;;;;;;;;;;;;;;;24.66;45.15;100602.13;5100222;28;803;-28
2021/06/30 01:29:58;;;;;;;;;;;;;;;24.87;45.22;100600.75;5099286;28;958;-28
2021/06/30 01:32:23;;;;;;;;;;;;;;;24.27;44.28;100606.34;5099432;28;823;-29
2021/06/30 01:34:49;;;;;;;;;;;;;;;23.88;47.55;100619.34;5099894;28;775;-28
2021/06/30 01:37:14;;;;;;;;;;;;;;;24.41;44.75;100615.56;5099438;28;1909;-28
2021/06/30 01:39:39;;;;;;;;;;;;;;;24.53;46.41;100616.94;5099218;28;827;-28
2021/06/30 01:42:05;;;;;;;;;;;;;;;23.80;44.17;100622.03;5099596;28;827;-27
2021/06/30 01:44:30;;;;;;;;;;;;;;;24.09;45.38;100623.41;5098908;28;1010;-28
2021/06/30 01:46:55;;;;;;;;;;;;;;;24.36;46.15;100615.28;5099408;28;835;-31
2021/06/30 01:49:20;;;;;;;;;;;;;;;24.79;44.33;100613.19;5099407;28;756;-30
2021/06/30 01:51:46;;;;;;;;;;;;;;;24.75;43.19;100619.09;5099187;28;800;-30
2021/06/30 01:54:13;;;;;;;;;;;;;;;23.89;43.83;100618.34;5098900;28;823;-27
2021/06/30 01:56:38;;;;;;;;;;;;;;;24.11;45.43;100626.78;5099157;28;730;-27
2021/06/30 01:59:08;;;;;;;;;;;;;;;24.55;46.08;100625.69;5098709;28;1963;-27
2021/06/30 02:01:33;;;;;;;;;;;;;;;24.81;44.37;100621.09;5098933;28;759;-27
2021/06/30 02:03:58;;;;;;;;;;;;;;;24.74;42.81;100620.13;5099016;28;732;-30
2021/06/30 02:06:24;;;;;;;;;;;;;;;23.90;44.20;100622.72;5098830;28;744;-40
2021/06/30 02:08:50;;;;;;;;;;;;;;;24.07;46.35;100630.81;5098986;28;768;-28
2021/06/30 02:11:15;;;;;;;;;;;;;;;24.58;46.04;100630.72;5098614;28;800;-29
2021/06/30 02:13:41;;;;;;;;;;;;;;;23.81;45.22;100637.13;5098951;28;955;-29
2021/06/30 02:16:06;;;;;;;;;;;;;;;23.89;46.54;100642.53;5079647;28;1422;-29
2021/06/30 02:18:31;;;;;;;;;;;;;;;24.33;44.91;100648.69;5098326;28;1965;-36
2021/06/30 02:20:57;;;;;;;;;;;;;;;24.39;43.46;100641.81;5098718;28;744;-30
2021/06/30 02:23:22;;;;;;;;;;;;;;;23.71;45.52;100640.81;5098705;28;1276;-29
2021/06/30 02:25:48;;;;;;;;;;;;;;;24.15;45.41;100644.28;5098022;28;883;-38
2021/06/30 02:28:13;;;;;;;;;;;;;;;24.41;46.64;100648.69;5098241;28;747;-28
2021/06/30 02:30:39;;;;;;;;;;;;;;;24.89;44.21;100642.59;5098315;28;955;-29
2021/06/30 02:33:05;;;;;;;;;;;;;;;24.38;43.39;100653.56;5098217;28;798;-28
2021/06/30 02:35:31;;;;;;;;;;;;;;;23.80;45.44;100652.41;5098212;28;989;-27
2021/06/30 02:37:56;;;;;;;;;;;;;;;24.25;45.02;100654.91;5098384;28;1914;-28
2021/06/30 02:40:22;;;;;;;;;;;;;;;24.45;46.55;100647.38;5097854;28;862;-27
2021/06/30 02:42:47;;;;;;;;;;;;;;;24.92;44.12;100657.63;5098356;28;846;-29
2021/06/30 02:45:13;;;;;;;;;;;;;;;24.15;43.73;100655.03;5098000;28;1040;-32
2021/06/30 02:47:39;;;;;;;;;;;;;;;23.81;44.34;100653.25;5097662;28;752;-30
2021/06/30 02:50:04;;;;;;;;;;;;;;;24.16;45.20;100651.34;5097939;28;802;-28
2021/06/30 02:52:30;;;;;;;;;;;;;;;24.38;46.53;100653.56;5098082;28;732;-39
2021/06/30 02:54:55;;;;;;;;;;;;;;;24.91;43.87;100650.53;5098069;28;806;-28
2021/06/30 02:57:21;;;;;;;;;;;;;;;24.17;43.09;100655.72;5098257;28;1967;-28
2021/06/30 02:59:46;;;;;;;;;;;;;;;23.96;43.64;100658.81;5097837;28;943;-29
2021/06/30 03:02:11;;;;;;;;;;;;;;;24.24;44.97;100663.94;5097676;28;767;-31
2021/06/30 03:04:36;;;;;;;;;;;;;;;24.55;47.39;100671.41;5097988;28;823;-31
2021/06/30 03:07:02;;;;;;;;;;;;;;;23.78;47.98;100672.38;5097594;28;822;-41
2021/06/30 03:09:27;;;;;;;;;;;;;;;23.36;48.83;100667.63;5097391;28;805;-30
2021/06/30 03:11:54;;;;;;;;;;;;;;;23.06;49.64;100661.75;5097903;28;827;-41
2021/06/30 03:14:20;;;;;;;;;;;;;;;23.06;49.76;100666.28;5097041;28;923;-29
2021/06/30 03:16:47;;;;;;;;;;;;;;;22.89;49.95;100668.03;5096854;28;1043;-32
2021/06/30 03:19:12;;;;;;;;;;;;;;;23.67;51.23;100668.97;5079115;28;1909;-39
2021/06/30 03:21:38;;;;;;;;;;;;;;;24.32;49.87;100665.84;5097448;28;768;-41
2021/06/30 03:24:04;;;;;;;;;;;;;;;24.65;50.38;100665.00;5097050;28;1284;-40
2021/06/30 03:26:30;;;;;;;;;;;;;;;24.82;50.53;100668.53;5097379;28;965;-38
2021/06/30 03:28:55;;;;;;;;;;;;;;;24.77;50.80;100673.56;5096209;28;1014;-35
2021/06/30 03:31:20;;;;;;;;;;;;;;;24.98;50.93;100665.00;5097260;28;838;-30
2021/06/30 03:33:46;;;;;;;;;;;;;;;24.99;51.43;100665.84;5097044;28;791;-30
2021/06/30 03:36:11;;;;;;;;;;;;;;;24.94;52.08;100661.81;5096799;28;859;-40
2021/06/30 03:38:37;;;;;;;;;;;;;;;24.93;53.04;100675.44;5078906;28;1906;-30
2021/06/30 03:41:02;;;;;;;;;;;;;;;24.51;54.94;100678.09;5097475;28;780;-41
2021/06/30 03:43:28;;;;;;;;;;;;;;;24.58;55.82;100672.91;5079118;28;764;-29
2021/06/30 03:45:53;;;;;;;;;;;;;;;24.75;55.79;100675.59;5095882;28;1036;-31
2021/06/30 03:48:18;;;;;;;;;;;;;;;24.32;52.97;100679.28;5096242;28;1202;-29
2021/06/30 03:50:43;;;;;;;;;;;;;;;23.80;51.60;100681.13;5096661;28;1226;-38
2021/06/30 03:53:09;;;;;;;;;;;;;;;23.44;50.74;100688.34;5096497;28;780;-30
2021/06/30 03:55:34;;;;;;;;;;;;;;;23.96;50.12;100683.84;5097212;28;776;-41
2021/06/30 03:57:59;;;;;;;;;;;;;;;23.91;49.43;100685.34;5097020;28;1969;-34
2021/06/30 04:00:26;;;;;;;;;;;;;;;23.53;49.84;100680.31;5096546;28;1005;-31
2021/06/30 04:02:53;;;;;;;;;;;;;;;23.97;51.33;100680.16;5096795;28;771;-29
2021/06/30 04:05:18;;;;;;;;;;;;;;;24.83;49.66;100680.97;5097313;28;736;-33
2021/06/30 04:07:43;;;;;;;;;;;;;;;25.27;48.74;100676.22;5096417;28;878;-42
2021/06/30 04:10:09;;;;;;;;;;;;;;;25.49;49.51;100681.88;5099216;28;957;-40
2021/06/30 04:12:34;;;;;;;;;;;;;;;25.47;50.67;100679.38;5117482;28;795;-43
2021/06/30 04:14:59;;;;;;;;;;;;;;;25.63;50.37;100673.09;5105380;28;950;-41
2021/06/30 04:17:24;;;;;;;;;;;;;;;25.75;51.01;100678.09;5096385;28;1905;-31
2021/06/30 04:19:50;;;;;;;;;;;;;;;25.82;51.68;100676.38;5096995;28;802;-41
2021/06/30 04:22:15;;;;;;;;;;;;;;;25.97;51.07;100681.88;5096390;28;1283;-33
2021/06/30 04:24:40;;;;;;;;;;;;;;;26.05;51.50;100678.28;5096629;28;743;-40
2021/06/30 04:27:06;;;;;;;;;;;;;;;26.06;52.13;100677.25;5096644;28;799;-29
2021/06/30 04:29:31;;;;;;;;;;;;;;;26.16;53.15;100680.56;5096425;28;963;-33
2021/06/30 04:31:56;;;;;;;;;;;;;;;26.26;53.57;100682.19;5096884;28;783;-31
2021/06/30 04:34:21;;;;;;;;;;;;;;;26.25;51.33;100675.97;5096445;28;821;-41
2021/06/30 04:36:47;;;;;;;;;;;;;;;26.20;52.22;100680.22;5096411;28;846;-29
2021/06/30 04:39:15;;;;;;;;;;;;;;;26.36;52.63;100674.72;5097133;28;1970;-33
2021/06/30 04:41:40;;;;;;;;;;;;;;;26.41;52.71;100676.88;5100727;28;772;-29
2021/06/30 04:44:05;;;;;;;;;;;;;;;26.41;52.41;100676.88;5100428;28;998;-38
2021/06/30 04:46:31;;;;;;;;;;;;;;;26.25;49.79;100684.06;5100207;28;818;-38
2021/06/30 04:48:56;;;;;;;;;;;;;;;26.51;50.18;100685.59;5100270;28;815;-34
2021/06/30 04:51:21;;;;;;;;;;;;;;;26.67;51.95;100683.78;5082028;28;1277;-41
2021/06/30 04:53:49;;;;;;;;;;;;;;;26.62;51.78;100689.72;5099761;28;846;-30
2021/06/30 04:56:14;;;;;;;;;;;;;;;26.62;51.85;100686.19;5100042;28;821;-42
2021/06/30 04:58:39;;;;;;;;;;;;;;;26.67;52.34;100686.47;5100167;28;1973;-39
2021/06/30 05:01:05;;;;;;;;;;;;;;;26.71;52.71;100686.97;5099377;28;947;-41
2021/06/30 05:03:30;;;;;;;;;;;;;;;26.78;52.70;100693.28;5099998;28;776;-36
2021/06/30 05:05:56;;;;;;;;;;;;;;;26.71;52.07;100689.66;5100066;28;768;-36
2021/06/30 05:08:24;;;;;;;;;;;;;;;26.61;50.68;100688.03;5081110;28;835;-42
2021/06/30 05:10:52;;;;;;;;;;;;;;;26.72;51.13;100694.03;5099913;28;821;-42
2021/06/30 05:13:17;;;;;;;;;;;;;;;26.88;51.92;100693.03;5099496;28;1079;-29
2021/06/30 05:15:43;;;;;;;;;;;;;;;26.92;52.38;100686.25;5099444;28;943;-39
2021/06/30 05:18:08;;;;;;;;;;;;;;;26.90;51.81;100685.59;5099582;28;1976;-38
2021/06/30 05:20:33;;;;;;;;;;;;;;;26.76;51.49;100687.22;5099810;28;771;-42
2021/06/30 05:22:59;;;;;;;;;;;;;;;26.89;50.41;100684.75;5099533;28;1151;-41
2021/06/30 05:25:24;;;;;;;;;;;;;;;26.84;49.55;100687.16;5099920;28;819;-32
2021/06/30 05:27:49;;;;;;;;;;;;;;;27.01;50.64;100695.97;5099446;28;840;-42
2021/06/30 05:30:15;;;;;;;;;;;;;;;27.23;50.63;100682.59;5099041;28;1029;-33
2021/06/30 05:32:40;;;;;;;;;;;;;;;27.31;50.36;100684.34;5099628;28;733;-33
2021/06/30 05:35:06;;;;;;;;;;;;;;;27.28;50.33;100683.91;5099522;28;828;-34
2021/06/30 05:37:31;;;;;;;;;;;;;;;27.30;50.08;100687.25;5099220;28;1981;-40
2021/06/30 05:39:57;;;;;;;;;;;;;;;27.34;50.43;100683.16;5099132;28;837;-32
2021/06/30 05:42:22;;;;;;;;;;;;;;;27.41;49.23;100692.19;5099496;28;771;-45
2021/06/30 05:44:48;;;;;;;;;;;;;;;27.46;49.76;100689.75;5098919;28;1006;-35
2021/06/30 05:47:13;;;;;;;;;;;;;;;27.25;47.56;100680.56;5099585;28;796;-46
2021/06/30 05:49:38;;;;;;;;;;;;;;;27.05;46.32;100680.25;5099093;28;748;-35
2021/06/30 05:52:04;;;;;;;;;;;;;;;26.92;45.02;100682.72;5098103;28;866;-36
2021/06/30 05:54:29;;;;;;;;;;;;;;;26.55;45.84;100672.56;5098974;28;910;-34
2021/06/30 05:56:54;;;;;;;;;;;;;;;26.76;46.80;100679.13;5099183;28;799;-33
2021/06/30 05:59:19;;;;;;;;;;;;;;;26.95;46.52;100682.34;5101816;28;1902;-45
2021/06/30 06:01:45;;;;;;;;;;;;;;;26.81;45.93;100670.50;5118301;28;811;-30
2021/06/30 06:04:10;;;;;;;;;;;;;;;26.82;45.91;100674.88;5080490;28;974;-32
2021/06/30 06:06:35;;;;;;;;;;;;;;;26.62;45.74;100672.69;5098665;28;752;-40
2021/06/30 06:09:00;;;;;;;;;;;;;;;26.58;45.81;100674.91;5098531;28;791;-37
2021/06/30 06:11:26;;;;;;;;;;;;;;;26.64;45.84;100678.75;5098904;28;1016;-33
2021/06/30 06:13:51;;;;;;;;;;;;;;;26.64;45.78;100686.84;5098265;28;1006;-35
2021/06/30 06:16:19;;;;;;;;;;;;;;;26.58;45.07;100684.84;5098389;28;839;-32
2021/06/30 06:18:44;;;;;;;;;;;;;;;26.58;45.33;100687.56;5098394;28;1902;-34
2021/06/30 06:21:10;;;;;;;;;;;;;;;26.60;45.19;100685.53;5098232;28;807;-32
2021/06/30 06:23:35;;;;;;;;;;;;;;;26.61;44.32;100685.34;5112385;28;1091;-33
2021/06/30 06:26:00;;;;;;;;;;;;;;;26.65;44.80;100692.06;5099374;28;1196;-45
2021/06/30 06:28:30;;;;;;;;;;;;;;;26.58;44.93;100696.50;5097941;28;823;-30
2021/06/30 06:30:55;;;;;;;;;;;;;;;26.52;44.62;100695.38;5098046;28;974;-40
2021/06/30 06:33:21;;;;;;;;;;;;;;;26.39;45.17;100689.72;5098608;28;819;-33
2021/06/30 06:35:47;;;;;;;;;;;;;;;26.45;44.53;100686.31;5097716;28;1135;-30
2021/06/30 06:38:12;;;;;;;;;;;;;;;26.27;44.27;100694.66;5097857;28;1972;-24
2021/06/30 06:40:38;;;;;;;;;;;;;;;27.08;44.02;100695.22;5079119;28;1554;-35
2021/06/30 06:43:03;;;;;;;;;;;;;;;27.19;44.20;100689.41;5098052;28;827;-37
2021/06/30 06:45:29;;;;;;;;;;;;;;;26.84;42.59;100691.72;5098055;28;935;-37
2021/06/30 06:47:54;;;;;;;;;;;;;;;27.30;43.13;100692.66;5097839;28;1547;-47
2021/06/30 06:50:19;;;;;;;;;;;;;;;27.42;44.99;100691.19;5097892;28;759;-46
2021/06/30 06:52:44;;;;;;;;;;;;;;;27.49;45.64;100692.09;5098314;28;886;-48
2021/06/30 06:55:10;;;;;;;;;;;;;;;27.56;45.16;100692.19;5098175;28;729;-38
2021/06/30 06:57:37;;;;;;;;;;;;;;;27.65;45.58;100694.78;5097458;28;1943;-37
2021/06/30 07:00:03;;;;;;;;;;;;;;;27.57;45.12;100687.63;5097372;28;1459;-46
2021/06/30 07:02:28;;;;;;;;;;;;;;;27.42;45.42;100690.31;5079848;28;1158;-46
2021/06/30 07:04:54;;;;;;;;;;;;;;;27.58;45.06;100682.03;5097102;28;1417;-32
2021/06/30 07:07:19;;;;;;;;;;;;;;;27.36;45.32;100687.34;5098150;28;879;-41
2021/06/30 07:09:44;;;;;;;;;;;;;;;26.98;45.80;100681.97;5097689;28;775;-40
2021/06/30 07:12:09;;;;;;;;;;;;;;;26.88;45.66;100687.63;5097446;28;1418;-41
2021/06/30 07:14:35;;;;;;;;;;;;;;;26.92;44.46;100678.16;5096839;28;998;-41
2021/06/30 07:17:00;;;;;;;;;;;;;;;26.91;44.83;100679.16;5097435;28;788;-40
2021/06/30 07:19:25;;;;;;;;;;;;;;;26.81;45.67;100674.03;5097271;28;1890;-38
2021/06/30 07:21:51;;;;;;;;;;;;;;;26.65;47.08;100667.78;5097233;28;1036;-42
2021/06/30 07:24:16;;;;;;;;;;;;;;;26.74;47.16;100675.81;5097002;28;1563;-40
2021/06/30 07:26:41;;;;;;;;;;;;;;;27.17;47.09;100677.94;5097500;28;792;-45
2021/06/30 07:29:09;;;;;;;;;;;;;;;27.38;46.47;100688.00;5096188;28;1385;-39
2021/06/30 07:31:35;;;;;;;;;;;;;;;27.69;45.95;100678.06;5097134;28;1113;-32
2021/06/30 07:34:00;;;;;;;;;;;;;;;27.78;45.27;100683.34;5097377;28;791;-41
2021/06/30 07:36:25;;;;;;;;;;;;;;;27.87;44.80;100679.50;5097162;28;795;-40
2021/06/30 07:38:51;;;;;;;;;;;;;;;27.89;45.32;100676.59;5096883;28;1955;-55
2021/06/30 07:41:16;;;;;;;;;;;;;;;27.94;45.35;100682.28;5097496;28;752;-37
2021/06/30 07:43:41;;;;;;;;;;;;;;;27.45;45.60;100688.09;5103113;28;1442;-41
2021/06/30 07:46:07;;;;;;;;;;;;;;;27.77;44.67;100687.91;5096954;28;795;-33
2021/06/30 07:48:32;;;;;;;;;;;;;;;27.93;44.69;100681.44;5097250;28;756;-40
2021/06/30 07:50:57;;;;;;;;;;;;;;;27.99;45.04;100683.38;5096750;28;760;-33
2021/06/30 07:53:22;;;;;;;;;;;;;;;28.07;44.98;100685.16;5093597;28;811;-41
2021/06/30 07:55:48;;;;;;;;;;;;;;;28.10;44.37;100683.91;5076896;28;713;-32
2021/06/30 07:58:14;;;;;;;;;;;;;;;28.23;44.27;100685.91;5084312;28;1906;-34
2021/06/30 08:00:39;;;;;;;;;;;;;;;28.43;44.35;100685.28;5103730;28;998;-38
2021/06/30 08:03:04;;;;;;;;;;;;;;;28.41;43.83;100679.25;5117369;28;743;-32
2021/06/30 08:05:32;;;;;;;;;;;;;;;28.40;43.74;100689.25;5116554;28;938;-42
2021/06/30 08:07:57;;;;;;;;;;;;;;;28.44;44.04;100689.69;5117208;28;810;-34
2021/06/30 08:10:22;;;;;;;;;;;;;;;28.50;44.13;100686.22;5117208;28;776;-46
2021/06/30 08:12:48;;;;;;;;;;;;;;;28.49;43.82;100689.97;5116859;28;885;-33
2021/06/30 08:15:13;;;;;;;;;;;;;;;28.52;43.53;100684.16;5078223;28;1253;-37
2021/06/30 08:17:39;;;;;;;;;;;;;;;28.57;43.54;100678.16;5076117;28;1898;-32
2021/06/30 08:20:04;;;;;;;;;;;;;;;28.52;43.89;100681.44;5075920;28;815;-46
2021/06/30 08:22:30;;;;;;;;;;;;;;;28.47;43.43;100673.06;5076186;28;1237;-35
2021/06/30 08:24:55;;;;;;;;;;;;;;;28.54;43.28;100671.28;5076732;28;834;-42
2021/06/30 08:27:21;;;;;;;;;;;;;;;28.71;43.44;100671.81;5075919;28;835;-35
2021/06/30 08:29:47;;;;;;;;;;;;;;;28.73;43.72;100675.16;5085746;28;974;-41
2021/06/30 08:32:12;;;;;;;;;;;;;;;28.43;43.28;100678.03;5096480;28;746;-44
2021/06/30 08:34:37;;;;;;;;;;;;;;;28.60;43.70;100675.91;5096196;28;768;-34
2021/06/30 08:37:06;;;;;;;;;;;;;;;28.74;43.64;100684.13;5096560;28;720;-37
2021/06/30 08:39:31;;;;;;;;;;;;;;;28.84;43.06;100678.38;5096627;28;1913;-38
2021/06/30 08:41:56;;;;;;;;;;;;;;;28.60;43.12;100680.47;5095851;28;775;-35
2021/06/30 08:44:22;;;;;;;;;;;;;;;28.59;43.53;100676.91;5096312;28;986;-36
2021/06/30 08:46:47;;;;;;;;;;;;;;;28.79;43.56;100670.00;5096565;28;808;-40
2021/06/30 08:49:13;;;;;;;;;;;;;;;28.76;42.92;100670.41;5095456;28;1115;-45
2021/06/30 08:51:39;;;;;;;;;;;;;;;28.36;43.83;100666.31;5096265;28;740;-37
2021/06/30 08:54:06;;;;;;;;;;;;;;;28.62;43.67;100673.00;5096135;28;831;-44
2021/06/30 08:56:31;;;;;;;;;;;;;;;28.70;43.51;100667.44;5077870;28;795;-35
2021/06/30 08:58:57;;;;;;;;;;;;;;;28.66;43.25;100666.16;5077797;28;1891;-36
2021/06/30 09:01:23;;;;;;;;;;;;;;;28.62;43.65;100664.88;5095207;28;1547;-38
2021/06/30 09:03:51;;;;;;;;;;;;;;;28.72;43.37;100667.25;5095445;28;890;-57
2021/06/30 09:06:19;;;;;;;;;;;;;;;28.65;42.96;100667.19;5078716;28;795;-34
2021/06/30 09:08:47;;;;;;;;;;;;;;;28.47;43.52;100654.13;5096089;28;1150;-49
2021/06/30 09:11:14;;;;;;;;;;;;;;;28.48;43.85;100662.06;5076225;28;780;-48
2021/06/30 09:13:39;;;;;;;;;;;;;;;28.66;43.45;100674.25;5095896;28;1550;-43
2021/06/30 09:16:04;;;;;;;;;;;;;;;28.67;43.04;100661.56;5095832;28;947;-38
2021/06/30 09:18:34;;;;;;;;;;;;;;;28.39;43.20;100665.94;5095546;28;1902;-36
2021/06/30 09:21:15;;;;;;;;;;;;;;;28.48;43.52;100674.72;5096193;28;768;-44
2021/06/30 09:24:00;;;;;;;;;;;;;;;28.60;43.57;100670.47;5095857;28;1291;-35
2021/06/30 09:26:26;;;;;;;;;;;;;;;28.63;43.20;100669.25;5082755;28;1542;-41
2021/06/30 09:29:10;;;;;;;;;;;;;;;28.67;42.77;100667.84;5099326;28;978;-41
2021/06/30 09:31:36;;;;;;;;;;;;;;;28.67;42.86;100653.47;5099402;28;791;-47
2021/06/30 09:34:02;;;;;;;;;;;;;;;28.67;43.21;100667.00;5098669;28;1137;-35
2021/06/30 09:36:30;;;;;;;;;;;;;;;28.64;42.81;100667.38;5099841;28;1008;-36
2021/06/30 09:38:57;;;;;;;;;;;;;;;28.49;42.93;100660.19;5098341;28;1964;-33
2021/06/30 09:41:23;;;;;;;;;;;;;;;28.70;42.84;100656.63;5065844;28;1396;-35
2021/06/30 09:43:48;;;;;;;;;;;;;;;28.79;43.17;100662.72;5091134;28;1204;-48
2021/06/30 09:46:20;;;;;;;;;;;;;;;28.60;42.59;100656.97;5080810;28;980;-51
2021/06/30 09:48:52;;;;;;;;;;;;;;;28.62;43.05;100655.91;5098494;28;1412;-34
2021/06/30 09:51:20;;;;;;;;;;;;;;;28.73;43.06;100650.81;5099177;28;861;-33
2021/06/30 09:53:45;;;;;;;;;;;;;;;28.60;42.93;100645.28;5098801;28;780;-44
2021/06/30 09:56:15;;;;;;;;;;;;;;;28.40;42.98;100637.84;5098960;28;754;-49
2021/06/30 09:58:40;;;;;;;;;;;;;;;27.81;43.14;100564.84;5080746;28;1976;-34
2021/06/30 10:01:14;;;;;;;;;;;;;;;28.54;43.08;100633.38;5078905;28;760;-50
2021/06/30 10:03:40;;;;;;;;;;;;;;;28.65;43.00;100639.28;5078395;28;796;-34
2021/06/30 10:06:24;;;;;;;;;;;;;;;28.66;42.69;100630.16;5078482;28;839;-37
2021/06/30 10:08:49;;;;;;;;;;;;;;;28.64;43.77;100624.94;5078661;28;764;-45
2021/06/30 10:11:14;;;;;;;;;;;;;;;28.76;43.05;100621.69;5078447;28;755;-36
2021/06/30 10:13:39;;;;;;;;;;;;;;;28.80;42.83;100620.22;5078212;28;971;-31
2021/06/30 10:16:05;;;;;;;;;;;;;;;28.63;42.50;100622.41;5098677;28;902;-37
2021/06/30 10:18:30;;;;;;;;;;;;;;;28.70;42.91;100617.88;5080663;28;1977;-34
2021/06/30 10:20:56;;;;;;;;;;;;;;;28.68;43.14;100618.06;5090233;28;1056;-43
2021/06/30 10:23:21;;;;;;;;;;;;;;;28.69;43.36;100616.22;5118423;28;1221;-34
2021/06/30 10:25:47;;;;;;;;;;;;;;;28.61;42.83;100617.22;5118488;28;803;-33
2021/06/30 10:28:12;;;;;;;;;;;;;;;28.46;43.17;100612.69;5100625;28;760;-47
2021/06/30 10:30:37;;;;;;;;;;;;;;;28.57;43.00;100614.06;5083534;28;982;-38
2021/06/30 10:33:03;;;;;;;;;;;;;;;28.71;43.02;100616.88;5079894;28;752;-45
2021/06/30 10:35:28;;;;;;;;;;;;;;;28.87;43.08;100609.44;5098276;28;712;-34
2021/06/30 10:37:54;;;;;;;;;;;;;;;28.63;42.40;100608.88;5097752;28;1914;-36
2021/06/30 10:40:20;;;;;;;;;;;;;;;28.79;42.68;100599.63;5098218;28;759;-36
2021/06/30 10:42:47;;;;;;;;;;;;;;;28.82;42.70;100601.94;5098345;28;833;-40
2021/06/30 10:45:12;;;;;;;;;;;;;;;29.03;42.32;100608.34;5098242;28;971;-43
2021/06/30 10:47:45;;;;;;;;;;;;;;;29.03;42.10;100602.94;5097945;28;810;-39
2021/06/30 10:50:22;;;;;;;;;;;;;;;28.95;42.58;100604.72;5098030;28;872;-38
2021/06/30 10:52:51;;;;;;;;;;;;;;;26.97;42.33;100600.16;5097939;28;843;-42
2021/06/30 10:55:32;;;;;;;;;;;;;;;26.05;42.63;100597.41;5097716;28;759;-37
2021/06/30 10:58:19;;;;;;;;;;;;;;;25.79;44.01;100604.81;5097765;28;1905;-39
2021/06/30 11:00:45;;;;;;;;;;;;;;;25.40;44.26;100602.97;5097518;28;1018;-38
2021/06/30 11:03:30;;;;;;;;;;;;;;;25.40;43.77;100603.81;5097135;28;796;-36
2021/06/30 11:06:13;;;;;;;;;;;;;;;24.76;45.19;100600.09;5097783;28;815;-45
2021/06/30 11:08:44;;;;;;;;;;;;;;;24.76;45.46;100600.09;5097802;28;831;-34
2021/06/30 11:11:17;;;;;;;;;;;;;;;24.80;44.82;100593.38;5097734;28;771;-35
2021/06/30 11:14:02;;;;;;;;;;;;;;;24.59;44.90;100591.19;5097391;28;998;-40
2021/06/30 11:16:37;;;;;;;;;;;;;;;24.47;45.50;100596.09;5096672;28;1190;-38
2021/06/30 11:19:05;;;;;;;;;;;;;;;24.46;45.58;100586.34;5097324;28;1914;-33
2021/06/30 11:21:45;;;;;;;;;;;;;;;24.42;45.76;100585.84;5097732;28;835;-39
2021/06/30 11:24:29;;;;;;;;;;;;;;;24.34;46.49;100575.09;5096946;28;1091;-35
2021/06/30 11:26:55;;;;;;;;;;;;;;;24.53;49.12;100568.53;5097383;28;840;-43
2021/06/30 11:29:39;;;;;;;;;;;;;;;26.15;44.79;100578.31;5097347;28;1026;-34
2021/06/30 11:32:04;;;;;;;;;;;;;;;24.83;45.38;100571.50;5096869;28;811;-35
2021/06/30 11:34:29;;;;;;;;;;;;;;;24.38;45.32;100567.53;5097358;28;775;-46
2021/06/30 11:36:55;;;;;;;;;;;;;;;24.99;45.38;100567.09;5078913;28;1162;-42
2021/06/30 11:39:21;;;;;;;;;;;;;;;26.36;42.91;100574.13;5094522;28;1913;-36
2021/06/30 11:41:51;;;;;;;;;;;;;;;26.94;43.13;100575.41;5102112;28;1499;-36
2021/06/30 11:44:18;;;;;;;;;;;;;;;27.19;42.54;100573.28;5096713;28;871;-38
2021/06/30 11:46:44;;;;;;;;;;;;;;;27.45;42.09;100574.63;5096856;28;829;-42
2021/06/30 11:49:09;;;;;;;;;;;;;;;27.62;41.78;100572.56;5096324;28;839;-47
2021/06/30 11:51:34;;;;;;;;;;;;;;;27.62;41.63;100572.56;5096788;28;905;-49
2021/06/30 11:54:00;;;;;;;;;;;;;;;27.68;41.57;100572.78;5096547;28;904;-33
2021/06/30 11:56:31;;;;;;;;;;;;;;;27.86;41.62;100569.72;5097350;28;810;-35
2021/06/30 11:58:57;;;;;;;;;;;;;;;27.93;41.45;100558.94;5096130;28;1959;-37
2021/06/30 12:01:24;;;;;;;;;;;;;;;27.87;41.12;100557.84;5078154;28;855;-48
2021/06/30 12:03:49;;;;;;;;;;;;;;;27.95;41.14;100554.19;5097262;28;714;-42
2021/06/30 12:06:41;;;;;;;;;;;;;;;28.17;41.08;100551.47;5096601;28;791;-46
2021/06/30 12:09:06;;;;;;;;;;;;;;;28.09;40.98;100550.56;5092156;28;1273;-39
2021/06/30 12:11:32;;;;;;;;;;;;;;;28.01;40.83;100547.19;5096845;28;818;-37
2021/06/30 12:14:04;;;;;;;;;;;;;;;28.16;40.69;100556.03;5096375;28;955;-35
2021/06/30 12:16:38;;;;;;;;;;;;;;;28.25;41.07;100556.72;5096409;28;830;-41
2021/06/30 12:19:07;;;;;;;;;;;;;;;28.36;41.02;100555.41;5096503;28;1962;-38
2021/06/30 12:21:36;;;;;;;;;;;;;;;28.44;41.14;100547.16;5078792;28;784;-46
2021/06/30 12:24:01;;;;;;;;;;;;;;;28.50;41.27;100548.22;5096400;28;1301;-34
2021/06/30 12:26:27;;;;;;;;;;;;;;;28.85;40.28;100542.81;5096483;28;1391;-36
2021/06/30 12:28:52;;;;;;;;;;;;;;;28.93;40.17;100546.38;5096676;28;1018;-31
2021/06/30 12:31:17;;;;;;;;;;;;;;;29.02;40.11;100547.09;5096506;28;795;-35
2021/06/30 12:33:43;;;;;;;;;;;;;;;29.09;40.06;100545.25;5096626;28;810;-33
2021/06/30 12:36:10;;;;;;;;;;;;;;;29.19;39.57;100542.16;5078582;28;861;-35
2021/06/30 12:38:35;;;;;;;;;;;;;;;29.17;40.09;100542.38;5096279;28;1975;-42
2021/06/30 12:41:07;;;;;;;;;;;;;;;29.24;39.98;100550.53;5078180;28;819;-41
2021/06/30 12:43:33;;;;;;;;;;;;;;;29.29;40.14;100539.06;5096710;28;760;-42
2021/06/30 12:45:58;;;;;;;;;;;;;;;29.41;39.74;100533.91;5095923;28;1045;-35
2021/06/30 12:48:24;;;;;;;;;;;;;;;29.43;39.91;100538.06;5096343;28;748;-36